sensor_id;sensor_type;location;lat;lon;timestamp;pressure;altitude;pressure_sealevel;temperature;humidity
79285;BME280;68734;50.452;11.636;2023-04-01T00:00:24;93882.91;;;5.65;88.07
79285;BME280;68734;50.452;11.636;2023-04-01T00:02:50;93890.69;;;5.72;88.07
79285;BME280;68734;50.452;11.636;2023-04-01T00:05:15;93892.00;;;5.74;87.98
79285;BME280;68734;50.452;11.636;2023-04-01T00:07:45;93904.34;;;5.75;88.46
79285;BME280;68734;50.452;11.636;2023-04-01T00:10:12;93896.03;;;5.72;87.70
79285;BME280;68734;50.452;11.636;2023-04-01T00:12:38;93894.72;;;5.69;88.66
79285;BME280;68734;50.452;11.636;2023-04-01T00:15:05;93892.03;;;5.69;88.02
79285;BME280;68734;50.452;11.636;2023-04-01T00:17:31;93885.59;;;5.70;88.09
79285;BME280;68734;50.452;11.636;2023-04-01T00:19:56;93893.09;;;5.68;88.06
79285;BME280;68734;50.452;11.636;2023-04-01T00:22:23;93864.44;;;5.64;88.04
79285;BME280;68734;50.452;11.636;2023-04-01T00:24:49;93886.13;;;5.67;87.96
79285;BME280;68734;50.452;11.636;2023-04-01T00:27:15;93880.75;;;5.67;88.01
79285;BME280;68734;50.452;11.636;2023-04-01T00:29:45;93887.75;;;5.68;87.86
79285;BME280;68734;50.452;11.636;2023-04-01T00:32:11;93877.56;;;5.65;88.00
79285;BME280;68734;50.452;11.636;2023-04-01T00:34:37;93873.81;;;5.66;87.37
79285;BME280;68734;50.452;11.636;2023-04-01T00:37:03;93890.94;;;5.65;88.10
79285;BME280;68734;50.452;11.636;2023-04-01T00:39:29;93873.53;;;5.63;87.44
79285;BME280;68734;50.452;11.636;2023-04-01T00:41:56;93868.19;;;5.63;87.58
79285;BME280;68734;50.452;11.636;2023-04-01T00:44:28;93880.75;;;5.67;87.09
79285;BME280;68734;50.452;11.636;2023-04-01T00:46:53;93867.66;;;5.66;87.19
79285;BME280;68734;50.452;11.636;2023-04-01T00:49:22;93870.34;;;5.66;86.99
79285;BME280;68734;50.452;11.636;2023-04-01T00:51:52;93866.31;;;5.68;86.60
79285;BME280;68734;50.452;11.636;2023-04-01T00:54:19;93862.00;;;5.67;87.16
79285;BME280;68734;50.452;11.636;2023-04-01T00:56:52;93867.38;;;5.67;87.16
79285;BME280;68734;50.452;11.636;2023-04-01T00:59:27;93861.47;;;5.65;86.88
79285;BME280;68734;50.452;11.636;2023-04-01T01:01:56;93853.75;;;5.64;87.50
79285;BME280;68734;50.452;11.636;2023-04-01T01:04:31;93845.97;;;5.57;87.39
79285;BME280;68734;50.452;11.636;2023-04-01T01:34:22;93843.84;;;5.44;87.14
79285;BME280;68734;50.452;11.636;2023-04-01T01:36:56;93828.31;;;5.40;87.46
79285;BME280;68734;50.452;11.636;2023-04-01T01:39:26;93824.84;;;5.35;87.50
79285;BME280;68734;50.452;11.636;2023-04-01T01:41:57;93838.75;;;5.42;86.75
79285;BME280;68734;50.452;11.636;2023-04-01T01:44:26;93841.69;;;5.40;86.96
79285;BME280;68734;50.452;11.636;2023-04-01T01:46:54;93834.22;;;5.37;87.05
79285;BME280;68734;50.452;11.636;2023-04-01T01:49:21;93839.59;;;5.37;86.58
79285;BME280;68734;50.452;11.636;2023-04-01T01:51:47;93815.22;;;5.29;86.85
79285;BME280;68734;50.452;11.636;2023-04-01T01:54:14;93826.19;;;5.32;87.67
79285;BME280;68734;50.452;11.636;2023-04-01T01:56:41;93842.81;;;5.29;87.97
79285;BME280;68734;50.452;11.636;2023-04-01T01:59:09;93831.56;;;5.22;87.90
79285;BME280;68734;50.452;11.636;2023-04-01T02:01:40;93842.53;;;5.26;88.16
79285;BME280;68734;50.452;11.636;2023-04-01T02:04:07;93857.81;;;5.25;88.56
79285;BME280;68734;50.452;11.636;2023-04-01T02:06:38;93842.78;;;5.24;87.95
79285;BME280;68734;50.452;11.636;2023-04-01T02:09:08;93842.78;;;5.24;88.27
79285;BME280;68734;50.452;11.636;2023-04-01T02:11:45;93837.97;;;5.26;88.41
79285;BME280;68734;50.452;11.636;2023-04-01T02:14:43;93843.31;;;5.26;88.80
79285;BME280;68734;50.452;11.636;2023-04-01T02:17:15;93835.56;;;5.25;88.71
79285;BME280;68734;50.452;11.636;2023-04-01T02:19:51;93840.13;;;5.29;89.09
79285;BME280;68734;50.452;11.636;2023-04-01T02:22:21;93842.81;;;5.29;88.58
79285;BME280;68734;50.452;11.636;2023-04-01T02:24:50;93841.19;;;5.28;89.21
79285;BME280;68734;50.452;11.636;2023-04-01T02:27:18;93842.25;;;5.22;89.20
79285;BME280;68734;50.452;11.636;2023-04-01T02:29:44;93845.22;;;5.26;89.07
79285;BME280;68734;50.452;11.636;2023-04-01T02:32:10;93842.25;;;5.22;88.69
79285;BME280;68734;50.452;11.636;2023-04-01T02:34:38;93838.78;;;5.27;87.95
79285;BME280;68734;50.452;11.636;2023-04-01T02:37:04;93834.25;;;5.27;88.40
79285;BME280;68734;50.452;11.636;2023-04-01T02:39:31;93835.56;;;5.30;88.65
79285;BME280;68734;50.452;11.636;2023-04-01T02:41:57;93840.13;;;5.24;88.35
79285;BME280;68734;50.452;11.636;2023-04-01T02:44:22;93840.91;;;5.25;88.79
79285;BME280;68734;50.452;11.636;2023-04-01T02:46:48;93829.13;;;5.20;88.67
79285;BME280;68734;50.452;11.636;2023-04-01T02:49:14;93836.91;;;5.27;88.44
79285;BME280;68734;50.452;11.636;2023-04-01T02:51:40;93841.72;;;5.30;88.37
79285;BME280;68734;50.452;11.636;2023-04-01T02:54:05;93843.03;;;5.33;88.08
79285;BME280;68734;50.452;11.636;2023-04-01T02:56:33;93847.63;;;5.27;88.21
79285;BME280;68734;50.452;11.636;2023-04-01T02:59:04;93839.59;;;5.27;88.05
79285;BME280;68734;50.452;11.636;2023-04-01T03:01:29;93847.34;;;5.29;88.14
79285;BME280;68734;50.452;11.636;2023-04-01T03:03:55;93844.94;;;5.27;88.63
79285;BME280;68734;50.452;11.636;2023-04-01T03:06:20;93846.81;;;5.27;87.87
79285;BME280;68734;50.452;11.636;2023-04-01T03:08:48;93842.81;;;5.29;88.42
79285;BME280;68734;50.452;11.636;2023-04-01T03:11:14;93852.69;;;5.29;88.21
79285;BME280;68734;50.452;11.636;2023-04-01T03:13:39;93844.94;;;5.27;88.05
79285;BME280;68734;50.452;11.636;2023-04-01T03:16:06;93844.94;;;5.27;87.94
79285;BME280;68734;50.452;11.636;2023-04-01T03:18:34;93840.13;;;5.24;88.09
79285;BME280;68734;50.452;11.636;2023-04-01T03:21:22;93849.75;;;5.30;88.06
79285;BME280;68734;50.452;11.636;2023-04-01T03:23:48;93834.50;;;5.20;87.67
79285;BME280;68734;50.452;11.636;2023-04-01T03:26:14;93843.84;;;5.23;87.76
79285;BME280;68734;50.452;11.636;2023-04-01T03:28:40;93829.94;;;5.21;87.72
79285;BME280;68734;50.452;11.636;2023-04-01T03:31:05;93841.19;;;5.23;87.99
79285;BME280;68734;50.452;11.636;2023-04-01T03:33:31;93849.78;;;5.25;87.76
79285;BME280;68734;50.452;11.636;2023-04-01T03:36:01;93842.25;;;5.32;87.13
79285;BME280;68734;50.452;11.636;2023-04-01T03:38:32;93846.00;;;5.31;87.36
79285;BME280;68734;50.452;11.636;2023-04-01T03:40:57;93854.03;;;5.31;86.83
79285;BME280;68734;50.452;11.636;2023-04-01T03:43:22;93853.50;;;5.29;87.99
79285;BME280;68734;50.452;11.636;2023-04-01T03:45:51;93859.94;;;5.28;87.46
79285;BME280;68734;50.452;11.636;2023-04-01T03:48:20;93856.19;;;5.24;87.66
79285;BME280;68734;50.452;11.636;2023-04-01T03:50:48;93840.66;;;5.11;87.57
79285;BME280;68734;50.452;11.636;2023-04-01T03:53:13;93856.69;;;5.21;87.71
79285;BME280;68734;50.452;11.636;2023-04-01T03:55:41;93849.75;;;5.20;87.22
79285;BME280;68734;50.452;11.636;2023-04-01T03:58:07;93866.63;;;5.20;88.47
79285;BME280;68734;50.452;11.636;2023-04-01T04:00:33;93859.13;;;5.17;87.89
79285;BME280;68734;50.452;11.636;2023-04-01T04:02:59;93860.19;;;5.16;87.71
79285;BME280;68734;50.452;11.636;2023-04-01T04:05:25;93849.22;;;5.13;87.59
79285;BME280;68734;50.452;11.636;2023-04-01T04:07:51;93855.13;;;5.10;88.72
79285;BME280;68734;50.452;11.636;2023-04-01T04:10:18;93870.38;;;5.19;88.34
79285;BME280;68734;50.452;11.636;2023-04-01T04:12:44;93867.97;;;5.18;87.89
79285;BME280;68734;50.452;11.636;2023-04-01T04:15:09;93863.41;;;5.18;87.87
79285;BME280;68734;50.452;11.636;2023-04-01T04:17:35;93869.00;;;5.17;87.86
79285;BME280;68734;50.452;11.636;2023-04-01T04:20:01;93863.94;;;5.15;87.80
79285;BME280;68734;50.452;11.636;2023-04-01T04:22:27;93868.47;;;5.15;87.85
79285;BME280;68734;50.452;11.636;2023-04-01T04:24:55;93874.91;;;5.19;87.55
79285;BME280;68734;50.452;11.636;2023-04-01T04:27:20;93875.97;;;5.13;87.53
79285;BME280;68734;50.452;11.636;2023-04-01T04:29:46;93880.81;;;5.16;87.71
79285;BME280;68734;50.452;11.636;2023-04-01T04:32:11;93874.09;;;5.08;88.13
79285;BME280;68734;50.452;11.636;2023-04-01T04:34:37;93882.69;;;5.15;88.27
79285;BME280;68734;50.452;11.636;2023-04-01T04:37:02;93882.94;;;5.14;87.90
79285;BME280;68734;50.452;11.636;2023-04-01T04:39:28;93884.53;;;5.15;88.45
79285;BME280;68734;50.452;11.636;2023-04-01T04:41:54;93886.16;;;5.16;87.94
79285;BME280;68734;50.452;11.636;2023-04-01T04:44:20;93895.78;;;5.12;87.91
79285;BME280;68734;50.452;11.636;2023-04-01T04:46:45;93897.66;;;5.16;87.05
79285;BME280;68734;50.452;11.636;2023-04-01T04:49:11;93895.78;;;5.17;87.36
79285;BME280;68734;50.452;11.636;2023-04-01T04:51:36;93894.19;;;5.16;87.63
79285;BME280;68734;50.452;11.636;2023-04-01T04:54:04;93907.56;;;5.16;87.33
79285;BME280;68734;50.452;11.636;2023-04-01T04:56:30;93887.50;;;5.13;86.94
79285;BME280;68734;50.452;11.636;2023-04-01T04:58:57;93905.16;;;5.14;87.41
79285;BME280;68734;50.452;11.636;2023-04-01T05:01:22;93907.00;;;5.09;87.56
79285;BME280;68734;50.452;11.636;2023-04-01T05:03:48;93915.06;;;5.14;86.57
79285;BME280;68734;50.452;11.636;2023-04-01T05:06:20;93910.50;;;5.14;87.35
79285;BME280;68734;50.452;11.636;2023-04-01T05:08:46;93897.94;;;5.10;86.98
79285;BME280;68734;50.452;11.636;2023-04-01T05:11:13;93909.44;;;5.15;87.47
79285;BME280;68734;50.452;11.636;2023-04-01T05:13:40;93909.72;;;5.14;88.40
79285;BME280;68734;50.452;11.636;2023-04-01T05:16:11;93907.03;;;5.14;88.26
79285;BME280;68734;50.452;11.636;2023-04-01T05:18:38;93911.84;;;5.12;87.67
79285;BME280;68734;50.452;11.636;2023-04-01T05:21:03;93909.16;;;5.07;87.76
79285;BME280;68734;50.452;11.636;2023-04-01T05:23:30;93918.53;;;5.09;88.29
79285;BME280;68734;50.452;11.636;2023-04-01T05:26:02;93911.84;;;5.12;88.39
79285;BME280;68734;50.452;11.636;2023-04-01T05:28:27;93904.88;;;5.11;88.11
79285;BME280;68734;50.452;11.636;2023-04-01T05:30:58;93908.09;;;5.13;87.34
79285;BME280;68734;50.452;11.636;2023-04-01T05:33:24;93903.28;;;5.15;88.21
79285;BME280;68734;50.452;11.636;2023-04-01T05:35:50;93907.03;;;5.19;87.52
79285;BME280;68734;50.452;11.636;2023-04-01T05:38:15;93907.03;;;5.19;87.25
79285;BME280;68734;50.452;11.636;2023-04-01T05:40:41;93907.03;;;5.19;87.50
79285;BME280;68734;50.452;11.636;2023-04-01T05:43:06;93909.16;;;5.17;87.60
79285;BME280;68734;50.452;11.636;2023-04-01T05:45:32;93906.50;;;5.22;87.28
79285;BME280;68734;50.452;11.636;2023-04-01T05:47:58;93911.84;;;5.22;87.50
79285;BME280;68734;50.452;11.636;2023-04-01T05:50:24;93912.13;;;5.26;87.10
79285;BME280;68734;50.452;11.636;2023-04-01T05:52:50;93903.84;;;5.27;87.61
79285;BME280;68734;50.452;11.636;2023-04-01T05:55:15;93904.63;;;5.33;88.24
79285;BME280;68734;50.452;11.636;2023-04-01T05:57:43;93920.97;;;5.42;87.79
79285;BME280;68734;50.452;11.636;2023-04-01T06:00:10;93913.47;;;5.44;87.38
79285;BME280;68734;50.452;11.636;2023-04-01T06:02:35;93909.72;;;5.50;86.98
79285;BME280;68734;50.452;11.636;2023-04-01T06:05:12;93899.53;;;5.52;86.40
79285;BME280;68734;50.452;11.636;2023-04-01T06:07:38;93913.97;;;5.61;87.41
79285;BME280;68734;50.452;11.636;2023-04-01T06:10:12;93911.31;;;5.66;86.28
79285;BME280;68734;50.452;11.636;2023-04-01T06:12:57;93917.69;;;5.91;86.66
79285;BME280;68734;50.452;11.636;2023-04-01T06:15:36;93912.88;;;6.08;85.79
79285;BME280;68734;50.452;11.636;2023-04-01T06:18:41;93917.72;;;6.06;85.62
79285;BME280;68734;50.452;11.636;2023-04-01T06:27:12;93920.41;;;5.80;86.46
79285;BME280;68734;50.452;11.636;2023-04-01T06:30:02;93914.00;;;5.71;85.85
79285;BME280;68734;50.452;11.636;2023-04-01T06:43:15;93927.75;;;6.45;84.98
79285;BME280;68734;50.452;11.636;2023-04-01T06:48:58;93924.50;;;6.64;84.24
79285;BME280;68734;50.452;11.636;2023-04-01T06:56:34;93919.94;;;7.09;82.93
79285;BME280;68734;50.452;11.636;2023-04-01T06:59:13;93929.31;;;7.11;82.99
79285;BME280;68734;50.452;11.636;2023-04-01T07:02:06;93928.13;;;6.88;82.47
79285;BME280;68734;50.452;11.636;2023-04-01T07:04:44;93928.09;;;6.93;82.90
79285;BME280;68734;50.452;11.636;2023-04-01T07:07:21;93927.03;;;6.89;82.14
79285;BME280;68734;50.452;11.636;2023-04-01T07:09:52;93932.97;;;6.86;82.26
79285;BME280;68734;50.452;11.636;2023-04-01T07:18:03;93944.22;;;6.88;82.78
79285;BME280;68734;50.452;11.636;2023-04-01T07:20:35;93946.38;;;6.86;82.46
79285;BME280;68734;50.452;11.636;2023-04-01T07:23:26;93942.84;;;6.96;82.89
79285;BME280;68734;50.452;11.636;2023-04-01T07:26:05;93951.69;;;7.02;82.25
79285;BME280;68734;50.452;11.636;2023-04-01T07:28:32;93944.03;;;7.19;81.36
79285;BME280;68734;50.452;11.636;2023-04-01T07:32:15;93930.06;;;7.22;82.42
79285;BME280;68734;50.452;11.636;2023-04-01T07:34:33;93949.78;;;7.42;82.81
79285;BME280;68734;50.452;11.636;2023-04-01T07:37:12;93952.97;;;7.54;81.57
79285;BME280;68734;50.452;11.636;2023-04-01T07:39:50;93948.06;;;7.61;79.94
79285;BME280;68734;50.452;11.636;2023-04-01T07:47:36;93947.72;;;7.33;80.52
79285;BME280;68734;50.452;11.636;2023-04-01T08:00:43;93963.03;;;7.67;79.35
79285;BME280;68734;50.452;11.636;2023-04-01T08:03:31;93950.84;;;8.09;79.39
79285;BME280;68734;50.452;11.636;2023-04-01T08:22:16;93955.91;;;7.87;79.57
79285;BME280;68734;50.452;11.636;2023-04-01T08:24:46;93970.53;;;8.05;78.67
79285;BME280;68734;50.452;11.636;2023-04-01T08:27:23;93970.16;;;8.16;78.91
79285;BME280;68734;50.452;11.636;2023-04-01T08:29:57;93962.84;;;8.22;79.62
79285;BME280;68734;50.452;11.636;2023-04-01T08:32:55;93970.72;;;8.13;78.92
79285;BME280;68734;50.452;11.636;2023-04-01T08:35:36;93974.50;;;8.66;79.48
79285;BME280;68734;50.452;11.636;2023-04-01T08:38:12;93960.63;;;8.58;77.15
79285;BME280;68734;50.452;11.636;2023-04-01T08:43:42;93968.44;;;8.26;77.51
79285;BME280;68734;50.452;11.636;2023-04-01T08:49:37;93969.03;;;8.23;79.00
79285;BME280;68734;50.452;11.636;2023-04-01T08:56:58;93971.59;;;8.04;80.60
79285;BME280;68734;50.452;11.636;2023-04-01T09:08:05;93956.75;;;8.11;79.51
79285;BME280;68734;50.452;11.636;2023-04-01T09:15:32;93954.25;;;8.49;78.14
79285;BME280;68734;50.452;11.636;2023-04-01T09:28:42;93969.34;;;8.93;75.93
79285;BME280;68734;50.452;11.636;2023-04-01T09:39:42;93965.38;;;9.10;74.15
79285;BME280;68734;50.452;11.636;2023-04-01T09:44:54;93956.06;;;9.21;74.71
79285;BME280;68734;50.452;11.636;2023-04-01T10:03:39;93975.28;;;9.33;75.66
79285;BME280;68734;50.452;11.636;2023-04-01T10:09:08;93976.09;;;9.53;75.16
79285;BME280;68734;50.452;11.636;2023-04-01T10:19:41;93991.81;;;8.59;76.62
79285;BME280;68734;50.452;11.636;2023-04-01T10:53:02;93989.22;;;7.86;80.55
79285;BME280;68734;50.452;11.636;2023-04-01T11:46:11;94003.78;;;7.85;79.89
79285;BME280;68734;50.452;11.636;2023-04-01T11:54:24;94005.97;;;8.12;79.42
79285;BME280;68734;50.452;11.636;2023-04-01T12:04:46;93996.47;;;8.78;78.65
79285;BME280;68734;50.452;11.636;2023-04-01T12:10:21;94001.22;;;8.86;78.07
79285;BME280;68734;50.452;11.636;2023-04-01T12:21:07;93989.94;;;8.60;78.88
79285;BME280;68734;50.452;11.636;2023-04-01T12:40:35;94006.66;;;8.81;77.24
79285;BME280;68734;50.452;11.636;2023-04-01T12:46:25;94009.81;;;8.88;78.27
79285;BME280;68734;50.452;11.636;2023-04-01T12:52:03;94012.38;;;8.50;80.03
79285;BME280;68734;50.452;11.636;2023-04-01T12:58:21;94014.13;;;8.31;80.59
79285;BME280;68734;50.452;11.636;2023-04-01T13:03:49;94015.97;;;8.35;79.32
79285;BME280;68734;50.452;11.636;2023-04-01T13:09:07;94020.38;;;8.55;80.34
79285;BME280;68734;50.452;11.636;2023-04-01T13:20:19;94013.28;;;8.06;79.45
79285;BME280;68734;50.452;11.636;2023-04-01T13:28:31;94016.94;;;8.15;81.95
79285;BME280;68734;50.452;11.636;2023-04-01T13:31:11;94026.97;;;8.39;80.40
79285;BME280;68734;50.452;11.636;2023-04-01T13:36:26;94033.69;;;8.71;80.02
79285;BME280;68734;50.452;11.636;2023-04-01T13:46:54;94017.19;;;9.02;77.89
79285;BME280;68734;50.452;11.636;2023-04-01T13:50:04;94020.22;;;8.95;77.93
79285;BME280;68734;50.452;11.636;2023-04-01T13:52:59;94016.94;;;8.74;78.05
79285;BME280;68734;50.452;11.636;2023-04-01T13:55:52;94027.31;;;8.86;78.60
79285;BME280;68734;50.452;11.636;2023-04-01T14:01:25;94030.13;;;8.99;78.51
79285;BME280;68734;50.452;11.636;2023-04-01T14:04:09;94028.97;;;8.82;77.49
79285;BME280;68734;50.452;11.636;2023-04-01T14:07:04;94034.44;;;9.01;77.98
79285;BME280;68734;50.452;11.636;2023-04-01T14:09:42;94039.31;;;8.98;77.87
79285;BME280;68734;50.452;11.636;2023-04-01T14:12:21;94039.03;;;8.76;77.54
79285;BME280;68734;50.452;11.636;2023-04-01T14:14:57;94038.69;;;8.53;78.42
79285;BME280;68734;50.452;11.636;2023-04-01T14:17:34;94042.88;;;8.35;78.61
79285;BME280;68734;50.452;11.636;2023-04-01T14:22:42;94043.38;;;8.37;80.35
79285;BME280;68734;50.452;11.636;2023-04-01T14:25:25;94043.09;;;8.39;79.09
79285;BME280;68734;50.452;11.636;2023-04-01T14:34:19;94036.13;;;8.38;79.54
79285;BME280;68734;50.452;11.636;2023-04-01T14:42:58;94052.31;;;8.33;81.19
79285;BME280;68734;50.452;11.636;2023-04-01T14:51:13;94053.47;;;8.22;81.66
79285;BME280;68734;50.452;11.636;2023-04-01T14:54:02;94047.81;;;8.57;81.25
79285;BME280;68734;50.452;11.636;2023-04-01T14:56:43;94056.00;;;8.71;79.27
79285;BME280;68734;50.452;11.636;2023-04-01T14:59:14;94052.38;;;8.86;79.35
79285;BME280;68734;50.452;11.636;2023-04-01T15:01:56;94054.56;;;8.84;79.39
79285;BME280;68734;50.452;11.636;2023-04-01T15:09:49;94062.03;;;8.87;80.06
79285;BME280;68734;50.452;11.636;2023-04-01T15:12:38;94063.69;;;8.83;79.11
79285;BME280;68734;50.452;11.636;2023-04-01T15:15:39;94062.97;;;8.48;80.45
79285;BME280;68734;50.452;11.636;2023-04-01T15:34:48;94077.41;;;8.23;81.57
79285;BME280;68734;50.452;11.636;2023-04-01T15:37:34;94073.72;;;8.14;81.96
79285;BME280;68734;50.452;11.636;2023-04-01T15:48:48;94091.75;;;7.74;83.20
79285;BME280;68734;50.452;11.636;2023-04-01T16:01:59;94098.34;;;7.92;83.52
79285;BME280;68734;50.452;11.636;2023-04-01T16:04:58;94109.34;;;7.95;83.12
79285;BME280;68734;50.452;11.636;2023-04-01T16:10:20;94106.38;;;7.97;83.04
79285;BME280;68734;50.452;11.636;2023-04-01T16:13:06;94106.91;;;7.99;83.26
79285;BME280;68734;50.452;11.636;2023-04-01T16:15:44;94113.38;;;7.98;82.61
79285;BME280;68734;50.452;11.636;2023-04-01T16:18:42;94119.28;;;7.95;83.96
79285;BME280;68734;50.452;11.636;2023-04-01T16:24:05;94116.66;;;7.90;82.85
79285;BME280;68734;50.452;11.636;2023-04-01T16:31:58;94115.34;;;7.82;82.98
79285;BME280;68734;50.452;11.636;2023-04-01T16:37:11;94124.91;;;7.54;83.70
79285;BME280;68734;50.452;11.636;2023-04-01T16:47:58;94132.44;;;7.42;84.03
79285;BME280;68734;50.452;11.636;2023-04-01T16:55:58;94143.28;;;7.26;85.33
79285;BME280;68734;50.452;11.636;2023-04-01T16:58:56;94139.00;;;7.15;85.80
79285;BME280;68734;50.452;11.636;2023-04-01T17:01:29;94129.34;;;7.09;85.40
79285;BME280;68734;50.452;11.636;2023-04-01T17:04:06;94137.94;;;7.11;85.75
79285;BME280;68734;50.452;11.636;2023-04-01T17:06:58;94153.00;;;7.07;85.65
79285;BME280;68734;50.452;11.636;2023-04-01T17:15:15;94165.34;;;6.97;86.18
79285;BME280;68734;50.452;11.636;2023-04-01T17:20:27;94171.28;;;6.94;86.36
79285;BME280;68734;50.452;11.636;2023-04-01T17:23:19;94175.84;;;6.89;86.07
79285;BME280;68734;50.452;11.636;2023-04-01T17:53:59;94203.75;;;6.57;88.17
79285;BME280;68734;50.452;11.636;2023-04-01T17:59:18;94197.56;;;6.51;88.55
79285;BME280;68734;50.452;11.636;2023-04-01T18:02:11;94212.34;;;6.49;88.40
79285;BME280;68734;50.452;11.636;2023-04-01T18:05:03;94215.81;;;6.49;88.91
79285;BME280;68734;50.452;11.636;2023-04-01T18:08:18;94214.75;;;6.45;88.82
79285;BME280;68734;50.452;11.636;2023-04-01T18:16:00;94229.25;;;6.44;88.74
79285;BME280;68734;50.452;11.636;2023-04-01T18:23:50;94237.00;;;6.41;89.63
79285;BME280;68734;50.452;11.636;2023-04-01T18:31:46;94249.31;;;6.31;90.94
79285;BME280;68734;50.452;11.636;2023-04-01T18:34:43;94251.19;;;6.31;90.98
79285;BME280;68734;50.452;11.636;2023-04-01T18:37:32;94253.06;;;6.25;91.18
79285;BME280;68734;50.452;11.636;2023-04-01T18:40:25;94254.66;;;6.21;91.29
79285;BME280;68734;50.452;11.636;2023-04-01T18:43:05;94264.59;;;6.21;91.52
79285;BME280;68734;50.452;11.636;2023-04-01T18:48:37;94268.34;;;6.25;91.11
79285;BME280;68734;50.452;11.636;2023-04-01T18:53:41;94275.31;;;6.21;91.39
79285;BME280;68734;50.452;11.636;2023-04-01T18:56:22;94273.16;;;6.23;91.13
79285;BME280;68734;50.452;11.636;2023-04-01T19:04:39;94286.28;;;6.19;92.41
79285;BME280;68734;50.452;11.636;2023-04-01T19:09:51;94303.22;;;6.25;92.04
79285;BME280;68734;50.452;11.636;2023-04-01T19:17:29;94306.16;;;6.33;91.27
79285;BME280;68734;50.452;11.636;2023-04-01T19:20:05;94305.91;;;6.35;90.70
79285;BME280;68734;50.452;11.636;2023-04-01T19:33:49;94301.59;;;6.24;90.28
79285;BME280;68734;50.452;11.636;2023-04-01T19:36:50;94311.78;;;6.27;90.38
79285;BME280;68734;50.452;11.636;2023-04-01T19:42:30;94320.09;;;6.25;90.73
79285;BME280;68734;50.452;11.636;2023-04-01T19:45:20;94323.06;;;6.24;90.50
79285;BME280;68734;50.452;11.636;2023-04-01T19:52:58;94330.81;;;6.20;90.63
79285;BME280;68734;50.452;11.636;2023-04-01T20:00:53;94340.19;;;6.17;90.75
79285;BME280;68734;50.452;11.636;2023-04-01T20:08:51;94353.06;;;6.15;90.95
79285;BME280;68734;50.452;11.636;2023-04-01T20:14:29;94355.75;;;6.15;90.88
79285;BME280;68734;50.452;11.636;2023-04-01T20:22:29;94362.66;;;6.11;90.70
79285;BME280;68734;50.452;11.636;2023-04-01T20:25:02;94362.94;;;6.10;90.75
79285;BME280;68734;50.452;11.636;2023-04-01T20:27:37;94374.22;;;6.12;90.82
79285;BME280;68734;50.452;11.636;2023-04-01T20:42:35;94384.69;;;6.18;90.39
79285;BME280;68734;50.452;11.636;2023-04-01T20:45:33;94395.97;;;6.21;90.61
79285;BME280;68734;50.452;11.636;2023-04-01T20:51:10;94399.19;;;6.23;90.34
79285;BME280;68734;50.452;11.636;2023-04-01T20:54:05;94399.19;;;6.23;90.73
79285;BME280;68734;50.452;11.636;2023-04-01T20:56:44;94394.91;;;6.22;90.84
79285;BME280;68734;50.452;11.636;2023-04-01T21:02:31;94400.78;;;6.18;91.15
79285;BME280;68734;50.452;11.636;2023-04-01T21:15:55;94412.03;;;6.15;91.69
79285;BME280;68734;50.452;11.636;2023-04-01T21:18:47;94417.41;;;6.15;91.75
79285;BME280;68734;50.452;11.636;2023-04-01T21:21:57;94418.19;;;6.16;92.04
79285;BME280;68734;50.452;11.636;2023-04-01T21:24:33;94423.56;;;6.16;91.82
79285;BME280;68734;50.452;11.636;2023-04-01T21:29:37;94426.50;;;6.14;92.17
79285;BME280;68734;50.452;11.636;2023-04-01T21:34:50;94441.25;;;6.17;92.46
79285;BME280;68734;50.452;11.636;2023-04-01T21:40:23;94441.53;;;6.21;91.83
79285;BME280;68734;50.452;11.636;2023-04-01T22:09:02;94464.47;;;5.96;93.53
79285;BME280;68734;50.452;11.636;2023-04-01T22:14:08;94473.91;;;6.04;92.89
79285;BME280;68734;50.452;11.636;2023-04-01T22:16:59;94480.34;;;6.08;93.07
79285;BME280;68734;50.452;11.636;2023-04-01T22:32:23;94477.38;;;6.09;92.20
79285;BME280;68734;50.452;11.636;2023-04-01T22:40:45;94479.31;;;6.14;92.12
79285;BME280;68734;50.452;11.636;2023-04-01T22:43:17;94495.16;;;6.21;92.07
79285;BME280;68734;50.452;11.636;2023-04-01T22:46:12;94489.31;;;6.24;92.04
79285;BME280;68734;50.452;11.636;2023-04-01T22:51:15;94502.19;;;6.27;91.83
79285;BME280;68734;50.452;11.636;2023-04-01T22:56:26;94503.25;;;6.26;91.73
79285;BME280;68734;50.452;11.636;2023-04-01T22:59:02;94512.94;;;6.32;91.65
79285;BME280;68734;50.452;11.636;2023-04-01T23:01:34;94504.59;;;6.28;91.70
79285;BME280;68734;50.452;11.636;2023-04-01T23:04:05;94513.97;;;6.26;91.43
79285;BME280;68734;50.452;11.636;2023-04-01T23:06:37;94513.44;;;6.29;91.40
79285;BME280;68734;50.452;11.636;2023-04-01T23:09:17;94518.16;;;6.11;91.61
79285;BME280;68734;50.452;11.636;2023-04-01T23:12:03;94526.19;;;6.06;91.97
79285;BME280;68734;50.452;11.636;2023-04-01T23:20:23;94530.94;;;5.99;94.12
79285;BME280;68734;50.452;11.636;2023-04-01T23:23:00;94535.00;;;6.02;93.88
79285;BME280;68734;50.452;11.636;2023-04-01T23:28:18;94536.81;;;5.96;93.44
79285;BME280;68734;50.452;11.636;2023-04-01T23:30:48;94537.50;;;5.86;93.56
79285;BME280;68734;50.452;11.636;2023-04-01T23:38:21;94549.00;;;5.82;94.28
79285;BME280;68734;50.452;11.636;2023-04-01T23:40:49;94546.81;;;5.78;94.43
79285;BME280;68734;50.452;11.636;2023-04-01T23:43:25;94557.59;;;5.84;94.39
79285;BME280;68734;50.452;11.636;2023-04-01T23:45:54;94558.44;;;5.89;94.36
79285;BME280;68734;50.452;11.636;2023-04-01T23:48:29;94553.06;;;5.89;94.20
79285;BME280;68734;50.452;11.636;2023-04-01T23:50:56;94558.81;;;5.98;94.32
79285;BME280;68734;50.452;11.636;2023-04-01T23:53:25;94562.59;;;6.02;93.79
79285;BME280;68734;50.452;11.636;2023-04-01T23:55:52;94563.69;;;6.06;93.63
